Time;durP1;ratioP1;P1;durP2;ratioP2;P2;SDS_P1;SDS_P2;PMS_P1;PMS_P2;Temp;Humidity;BMP_temperature;BMP_pressure;BME280_temperature;BME280_humidity;BME280_pressure;Samples;Min_cycle;Max_cycle;Signal;HPM_P1;HPM_P2
2022/07/16 00:02:52;;;;;;;3.22;1.90;;;17.10;99.90;;;;;;5047016;28;20044;-75
2022/07/16 00:05:18;;;;;;;3.42;1.80;;;17.20;99.90;;;;;;5028110;28;20098;-75
2022/07/16 00:07:44;;;;;;;4.85;2.00;;;17.10;99.90;;;;;;5053347;28;20036;-75
2022/07/16 00:10:14;;;;;;;3.20;1.90;;;17.10;99.90;;;;;;5044352;28;20117;-75
2022/07/16 00:12:48;;;;;;;3.20;2.10;;;17.10;99.90;;;;;;5032219;28;20071;-76
2022/07/16 00:15:14;;;;;;;2.97;2.00;;;17.10;99.90;;;;;;5053171;28;20036;-76
2022/07/16 00:17:40;;;;;;;4.68;2.17;;;17.10;99.90;;;;;;5024578;28;20043;-76
2022/07/16 00:20:07;;;;;;;3.17;1.80;;;17.10;99.90;;;;;;5044085;28;20554;-76
2022/07/16 00:22:32;;;;;;;3.88;2.10;;;17.10;99.90;;;;;;5050465;28;20068;-76
2022/07/16 00:24:58;;;;;;;2.92;2.05;;;17.10;99.90;;;;;;5035575;28;20074;-75
2022/07/16 00:27:24;;;;;;;2.97;1.90;;;17.00;99.90;;;;;;5038952;28;20068;-76
2022/07/16 00:29:50;;;;;;;3.50;2.10;;;17.00;99.90;;;;;;5044247;28;20045;-76
2022/07/16 00:32:15;;;;;;;3.63;2.00;;;17.00;99.90;;;;;;5046123;28;20067;-76
2022/07/16 00:34:41;;;;;;;3.90;2.03;;;16.90;99.90;;;;;;5048927;28;20040;-76
2022/07/16 00:37:07;;;;;;;5.00;2.20;;;16.90;99.90;;;;;;5053757;28;20048;-76
2022/07/16 00:39:32;;;;;;;4.93;2.42;;;16.90;99.90;;;;;;5052078;28;20044;-76
2022/07/16 00:41:58;;;;;;;4.43;2.28;;;16.90;99.90;;;;;;5045100;28;20090;-75
2022/07/16 00:44:24;;;;;;;4.63;2.05;;;16.90;99.90;;;;;;5063759;28;20067;-75
2022/07/16 00:46:50;;;;;;;3.22;2.15;;;16.80;99.90;;;;;;5046633;28;20499;-75
2022/07/16 00:49:17;;;;;;;5.05;2.35;;;16.90;99.90;;;;;;5049095;28;20028;-76
2022/07/16 00:51:49;;;;;;;5.35;2.42;;;16.90;99.90;;;;;;5025729;28;20489;-75
2022/07/16 00:54:15;;;;;;;5.32;2.20;;;16.90;99.90;;;;;;5027414;28;20047;-75
2022/07/16 00:56:42;;;;;;;4.82;2.35;;;16.90;99.90;;;;;;5048301;28;20048;-75
2022/07/16 00:59:07;;;;;;;4.65;2.50;;;16.90;99.90;;;;;;5035078;28;20408;-75
2022/07/16 01:01:34;;;;;;;5.30;2.63;;;16.90;99.90;;;;;;5065070;28;20029;-75
2022/07/16 01:04:04;;;;;;;6.22;3.08;;;16.90;99.90;;;;;;5046036;28;20037;-75
2022/07/16 01:06:31;;;;;;;3.88;2.40;;;16.90;99.90;;;;;;5048609;28;20378;-75
2022/07/16 01:08:57;;;;;;;4.47;2.45;;;16.80;99.90;;;;;;5043901;28;20109;-75
2022/07/16 01:11:23;;;;;;;5.13;2.50;;;16.80;99.90;;;;;;5028968;28;20082;-75
2022/07/16 01:13:50;;;;;;;5.22;2.53;;;16.80;99.90;;;;;;5048881;28;20028;-75
2022/07/16 01:16:18;;;;;;;4.50;2.53;;;16.80;99.90;;;;;;5043815;28;20051;-75
2022/07/16 01:18:44;;;;;;;5.70;2.60;;;16.70;99.90;;;;;;5043301;28;20048;-75
2022/07/16 01:21:11;;;;;;;5.63;2.67;;;16.70;99.90;;;;;;5050304;28;20036;-75
2022/07/16 01:23:36;;;;;;;6.63;2.90;;;16.80;99.90;;;;;;5069106;28;20074;-75
2022/07/16 01:26:06;;;;;;;6.65;2.45;;;16.70;99.90;;;;;;5038381;28;20065;-75
2022/07/16 01:28:31;;;;;;;3.03;2.17;;;16.70;99.90;;;;;;5051542;28;20056;-75
2022/07/16 01:30:57;;;;;;;4.97;2.85;;;16.70;99.90;;;;;;5052526;28;20040;-75
2022/07/16 01:33:29;;;;;;;5.97;2.67;;;16.60;99.90;;;;;;5046923;28;20556;-75
2022/07/16 01:35:58;;;;;;;4.18;2.60;;;16.60;99.90;;;;;;5052445;28;20225;-76
2022/07/16 01:38:24;;;;;;;8.70;3.17;;;16.70;99.90;;;;;;5052267;28;20080;-75
2022/07/16 01:40:50;;;;;;;8.85;3.42;;;16.60;99.90;;;;;;5048298;28;20568;-75
2022/07/16 01:43:19;;;;;;;8.30;3.58;;;16.60;99.90;;;;;;5040406;28;20075;-74
2022/07/16 01:45:45;;;;;;;6.70;3.15;;;16.60;99.90;;;;;;5032099;28;20229;-74
2022/07/16 01:48:11;;;;;;;5.35;3.67;;;16.60;99.90;;;;;;5048580;28;20196;-74
2022/07/16 01:50:37;;;;;;;6.13;3.45;;;16.60;99.90;;;;;;5047857;28;20036;-74
2022/07/16 01:53:03;;;;;;;6.05;3.10;;;16.60;99.90;;;;;;5044802;28;20389;-74
2022/07/16 01:55:29;;;;;;;4.95;3.20;;;16.60;99.90;;;;;;5064978;28;20037;-74
2022/07/16 01:57:55;;;;;;;8.50;3.40;;;16.50;99.90;;;;;;5028813;28;20048;-74
2022/07/16 02:00:21;;;;;;;8.18;3.50;;;16.50;99.90;;;;;;5048397;28;20049;-74
2022/07/16 02:02:48;;;;;;;5.78;3.38;;;16.50;99.90;;;;;;5061640;28;20111;-74
2022/07/16 02:05:16;;;;;;;5.93;3.55;;;16.50;99.90;;;;;;5052502;28;20044;-74
2022/07/16 02:07:43;;;;;;;5.75;3.20;;;16.50;99.90;;;;;;5047543;28;20059;-74
2022/07/16 02:10:11;;;;;;;7.40;3.53;;;16.40;99.90;;;;;;5049532;28;20076;-74
2022/07/16 02:12:37;;;;;;;5.18;3.35;;;16.50;99.90;;;;;;5040875;28;20045;-74
2022/07/16 02:15:04;;;;;;;7.05;3.38;;;16.40;99.90;;;;;;5050307;28;20071;-74
2022/07/16 02:17:30;;;;;;;6.03;3.22;;;16.50;99.90;;;;;;5052514;28;20044;-74
2022/07/16 02:19:55;;;;;;;5.30;3.42;;;16.50;99.90;;;;;;5043111;28;20052;-74
2022/07/16 02:22:21;;;;;;;6.30;3.10;;;16.50;99.90;;;;;;5053020;28;20045;-74
2022/07/16 02:24:47;;;;;;;6.88;3.40;;;16.50;99.90;;;;;;5052691;28;20037;-74
2022/07/16 02:27:12;;;;;;;7.00;3.30;;;16.50;99.90;;;;;;5046757;28;20048;-74
2022/07/16 02:29:38;;;;;;;9.30;3.35;;;16.50;99.90;;;;;;5045187;28;20036;-74
2022/07/16 02:32:04;;;;;;;7.13;2.92;;;16.50;99.90;;;;;;5050534;28;20105;-74
2022/07/16 02:34:30;;;;;;;6.43;2.90;;;16.50;99.90;;;;;;5035493;28;20565;-74
2022/07/16 02:36:55;;;;;;;6.50;2.65;;;16.50;99.90;;;;;;5070698;28;20071;-74
2022/07/16 02:39:21;;;;;;;10.38;2.70;;;16.50;99.90;;;;;;5050676;28;20059;-74
2022/07/16 02:41:47;;;;;;;4.28;2.15;;;16.50;99.90;;;;;;5040244;28;20044;-74
2022/07/16 02:44:13;;;;;;;6.25;1.90;;;16.50;99.90;;;;;;5048612;28;20102;-75
2022/07/16 02:46:38;;;;;;;5.97;2.00;;;16.50;99.90;;;;;;5049005;28;20384;-74
2022/07/16 02:49:07;;;;;;;5.05;2.00;;;16.50;99.90;;;;;;5059107;28;20101;-74
2022/07/16 02:51:33;;;;;;;4.55;1.80;;;16.50;99.90;;;;;;5039856;28;20101;-74
2022/07/16 02:53:58;;;;;;;3.03;1.63;;;16.50;99.90;;;;;;5074526;28;20044;-73
2022/07/16 02:56:24;;;;;;;5.65;1.95;;;16.50;99.90;;;;;;5071208;28;20036;-73
2022/07/16 02:58:49;;;;;;;5.25;2.03;;;16.50;99.90;;;;;;5071476;28;20113;-73
2022/07/16 03:01:15;;;;;;;5.22;1.60;;;16.50;99.90;;;;;;5072935;28;20416;-73
2022/07/16 03:03:43;;;;;;;5.18;1.83;;;16.40;99.90;;;;;;5047830;28;20032;-74
2022/07/16 03:06:09;;;;;;;3.95;1.58;;;16.40;99.90;;;;;;5067236;28;20068;-74
2022/07/16 03:08:34;;;;;;;4.25;1.70;;;16.40;99.90;;;;;;5061965;28;20079;-74
2022/07/16 03:11:00;;;;;;;2.65;1.50;;;16.40;99.90;;;;;;5048760;28;20073;-74
2022/07/16 03:13:26;;;;;;;6.25;1.73;;;16.40;99.90;;;;;;5048843;28;20048;-74
2022/07/16 03:15:53;;;;;;;4.10;1.63;;;16.40;99.90;;;;;;5068577;28;20393;-74
2022/07/16 03:18:22;;;;;;;5.68;1.80;;;16.40;99.90;;;;;;5049392;28;20067;-74
2022/07/16 03:20:48;;;;;;;2.08;1.40;;;16.40;99.90;;;;;;5071236;28;20502;-73
2022/07/16 03:23:14;;;;;;;3.85;1.60;;;16.40;99.90;;;;;;5029142;28;20044;-73
2022/07/16 03:25:41;;;;;;;3.47;1.60;;;16.40;99.90;;;;;;5064079;28;20021;-75
2022/07/16 03:28:08;;;;;;;4.28;1.70;;;16.30;99.90;;;;;;5053560;28;20484;-73
2022/07/16 03:30:34;;;;;;;5.80;2.10;;;16.30;99.90;;;;;;5041241;28;20047;-73
2022/07/16 03:33:00;;;;;;;4.47;1.60;;;16.40;99.90;;;;;;5055715;28;20044;-73
2022/07/16 03:35:26;;;;;;;4.47;1.90;;;16.30;99.90;;;;;;5057134;28;20036;-74
2022/07/16 03:40:35;;;;;;;3.13;1.73;;;16.30;99.90;;;;;;5049958;28;20407;-73
2022/07/16 03:43:03;;;;;;;3.92;1.98;;;16.30;99.90;;;;;;5049003;28;20040;-73
2022/07/16 03:45:33;;;;;;;4.07;1.80;;;16.30;99.90;;;;;;5067558;28;20127;-73
2022/07/16 03:48:00;;;;;;;3.38;2.00;;;16.30;99.90;;;;;;5052960;28;20043;-74
2022/07/16 03:50:26;;;;;;;3.90;1.90;;;16.30;99.90;;;;;;5070773;28;20048;-73
2022/07/16 03:52:52;;;;;;;3.53;1.70;;;16.30;99.90;;;;;;5065529;28;20044;-73
2022/07/16 03:55:17;;;;;;;5.05;1.77;;;16.30;99.90;;;;;;5052450;28;20082;-74
2022/07/16 03:57:43;;;;;;;4.80;1.67;;;16.30;99.90;;;;;;5066280;28;20041;-73
2022/07/16 04:00:10;;;;;;;5.25;1.75;;;16.30;99.90;;;;;;5055042;28;20044;-73
2022/07/16 04:02:36;;;;;;;6.10;2.15;;;16.20;99.90;;;;;;5045327;28;20123;-74
2022/07/16 04:05:02;;;;;;;6.20;1.83;;;16.20;99.90;;;;;;5044863;28;20041;-73
2022/07/16 04:07:27;;;;;;;4.55;1.75;;;16.20;99.90;;;;;;5034054;28;20044;-73
2022/07/16 04:09:53;;;;;;;6.50;1.73;;;16.20;99.90;;;;;;5063069;28;20043;-73
2022/07/16 04:12:24;;;;;;;6.15;2.00;;;16.10;99.90;;;;;;5050045;28;20041;-73
2022/07/16 04:14:51;;;;;;;4.70;1.75;;;16.20;99.90;;;;;;5047358;28;20036;-74
2022/07/16 04:17:17;;;;;;;3.60;1.83;;;16.20;99.90;;;;;;5055221;28;20048;-73
2022/07/16 04:19:43;;;;;;;5.22;1.80;;;16.10;99.90;;;;;;5056971;28;20404;-73
2022/07/16 04:22:09;;;;;;;5.93;1.90;;;16.10;99.90;;;;;;5026578;28;20098;-73
2022/07/16 04:24:34;;;;;;;6.07;2.10;;;16.10;99.90;;;;;;5059628;28;20033;-73
2022/07/16 04:27:00;;;;;;;3.15;1.67;;;16.10;99.90;;;;;;5041502;28;20382;-74
2022/07/16 04:29:25;;;;;;;4.95;1.70;;;16.10;99.90;;;;;;5052794;28;20393;-73
2022/07/16 04:31:51;;;;;;;4.35;1.90;;;16.00;99.90;;;;;;5055533;28;20124;-73
2022/07/16 04:34:17;;;;;;;5.57;2.00;;;16.00;99.90;;;;;;5044827;28;20094;-73
2022/07/16 04:36:42;;;;;;;4.03;1.80;;;16.00;99.90;;;;;;5042082;28;20036;-74
2022/07/16 04:39:08;;;;;;;5.10;1.90;;;16.00;99.90;;;;;;5053802;28;20044;-75
2022/07/16 04:41:34;;;;;;;5.57;1.80;;;16.00;99.90;;;;;;5054271;28;20098;-73
2022/07/16 04:44:00;;;;;;;3.67;1.77;;;16.10;99.90;;;;;;5043411;28;20045;-73
2022/07/16 04:46:25;;;;;;;5.25;2.08;;;16.00;99.90;;;;;;5054619;28;20039;-74
2022/07/16 04:48:51;;;;;;;6.03;2.13;;;16.00;99.90;;;;;;5054116;28;20471;-73
2022/07/16 04:51:17;;;;;;;4.65;1.77;;;15.90;99.90;;;;;;5053072;28;20400;-74
2022/07/16 04:53:42;;;;;;;5.25;1.90;;;16.00;99.90;;;;;;5069659;28;20039;-74
2022/07/16 04:56:08;;;;;;;5.65;2.00;;;16.00;99.90;;;;;;5045547;28;20506;-74
2022/07/16 04:58:33;;;;;;;4.22;1.80;;;15.90;99.90;;;;;;5048249;28;20044;-74
2022/07/16 05:00:59;;;;;;;6.90;1.77;;;15.90;99.90;;;;;;5032378;28;20040;-74
2022/07/16 05:03:25;;;;;;;4.53;2.00;;;15.90;99.90;;;;;;5051104;28;20036;-74
2022/07/16 05:05:51;;;;;;;5.60;1.80;;;15.90;99.90;;;;;;5026734;28;20064;-74
2022/07/16 05:08:16;;;;;;;4.70;2.20;;;15.80;99.90;;;;;;5044536;28;20141;-74
2022/07/16 05:10:42;;;;;;;5.00;2.10;;;15.80;99.90;;;;;;5027671;28;20036;-74
2022/07/16 05:13:10;;;;;;;5.63;2.10;;;15.80;99.90;;;;;;5043259;28;20488;-74
2022/07/16 05:15:36;;;;;;;3.75;1.70;;;15.80;99.90;;;;;;5049540;28;20044;-74
2022/07/16 05:18:01;;;;;;;5.30;2.08;;;15.80;99.90;;;;;;5051589;28;20047;-74
2022/07/16 05:20:27;;;;;;;4.65;1.83;;;15.80;99.90;;;;;;5047618;28;20072;-73
2022/07/16 05:22:53;;;;;;;3.60;1.80;;;15.70;99.90;;;;;;5071081;28;20335;-74
2022/07/16 05:25:19;;;;;;;8.93;2.08;;;15.70;99.90;;;;;;5067937;28;20047;-73
2022/07/16 05:27:45;;;;;;;8.57;1.83;;;15.80;99.90;;;;;;5047752;28;20043;-74
2022/07/16 05:30:11;;;;;;;6.18;2.00;;;15.70;99.90;;;;;;5053527;28;20044;-74
2022/07/16 05:32:36;;;;;;;4.53;1.98;;;15.80;99.90;;;;;;5048974;28;20442;-74
2022/07/16 05:35:03;;;;;;;7.40;2.00;;;15.70;99.90;;;;;;5043647;28;20037;-74
2022/07/16 05:37:29;;;;;;;5.30;1.80;;;15.70;99.90;;;;;;5040767;28;20041;-74
2022/07/16 05:39:54;;;;;;;5.28;2.05;;;15.70;99.90;;;;;;5051200;28;20045;-74
2022/07/16 05:42:20;;;;;;;6.75;1.92;;;15.70;99.90;;;;;;5050859;28;20400;-74
2022/07/16 05:44:45;;;;;;;5.70;1.73;;;15.70;99.90;;;;;;5041841;28;20040;-74
2022/07/16 05:47:11;;;;;;;4.78;1.60;;;15.70;99.90;;;;;;5060573;28;20074;-74
2022/07/16 05:49:37;;;;;;;8.32;1.92;;;15.70;99.90;;;;;;5065462;28;20500;-74
2022/07/16 05:52:03;;;;;;;6.38;1.92;;;15.70;99.90;;;;;;5045053;28;20047;-74
2022/07/16 05:54:28;;;;;;;6.88;1.85;;;15.70;99.90;;;;;;5064758;28;20112;-74
2022/07/16 05:56:54;;;;;;;7.80;1.83;;;15.70;99.90;;;;;;5047481;28;20045;-74
2022/07/16 05:59:20;;;;;;;4.78;1.67;;;15.70;99.90;;;;;;5041117;28;20413;-74
2022/07/16 06:01:47;;;;;;;8.13;2.00;;;15.80;99.90;;;;;;5047046;28;20040;-74
2022/07/16 06:04:13;;;;;;;6.88;1.70;;;15.60;99.90;;;;;;5033446;28;20131;-74
2022/07/16 06:06:39;;;;;;;5.60;1.80;;;15.80;99.90;;;;;;5039209;28;20053;-74
2022/07/16 06:09:04;;;;;;;5.15;1.55;;;15.80;99.90;;;;;;5043491;28;20040;-74
2022/07/16 06:11:30;;;;;;;6.30;1.60;;;15.80;99.90;;;;;;5047307;28;20067;-74
2022/07/16 06:13:58;;;;;;;6.03;1.58;;;15.80;99.90;;;;;;5050709;28;20037;-74
2022/07/16 06:16:24;;;;;;;5.70;1.60;;;15.80;99.90;;;;;;5051266;28;20033;-74
2022/07/16 06:18:50;;;;;;;3.80;1.30;;;15.70;99.90;;;;;;5043258;28;20032;-74
2022/07/16 06:21:15;;;;;;;7.50;1.80;;;15.70;99.90;;;;;;5057848;28;20051;-75
2022/07/16 06:23:42;;;;;;;6.70;1.52;;;15.70;99.90;;;;;;5047240;28;20052;-74
2022/07/16 06:26:07;;;;;;;10.73;2.88;;;15.80;99.90;;;;;;5048082;28;20090;-74
2022/07/16 06:28:33;;;;;;;6.75;1.77;;;15.70;99.90;;;;;;5048413;28;20033;-75
2022/07/16 06:30:59;;;;;;;6.50;1.55;;;15.70;99.90;;;;;;5068435;28;20056;-74
2022/07/16 06:33:24;;;;;;;6.55;1.73;;;15.80;99.90;;;;;;5047822;28;20124;-74
2022/07/16 06:35:50;;;;;;;8.23;1.80;;;15.80;99.90;;;;;;5034836;28;20408;-74
2022/07/16 06:38:16;;;;;;;7.70;1.75;;;15.80;99.90;;;;;;5047132;28;20052;-74
2022/07/16 06:40:43;;;;;;;6.18;1.80;;;15.80;99.90;;;;;;5051688;28;20039;-74
2022/07/16 06:43:10;;;;;;;6.70;1.42;;;15.90;99.90;;;;;;5030162;28;20531;-74
2022/07/16 06:45:40;;;;;;;7.00;1.50;;;15.80;99.90;;;;;;5050857;28;20037;-74
2022/07/16 06:48:06;;;;;;;8.52;1.90;;;15.90;99.90;;;;;;5064046;28;20061;-74
2022/07/16 06:50:32;;;;;;;4.57;1.40;;;16.00;99.90;;;;;;5047971;28;20080;-74
2022/07/16 06:52:57;;;;;;;6.13;1.52;;;15.90;99.90;;;;;;5069045;28;20505;-74
2022/07/16 06:55:23;;;;;;;4.53;1.42;;;15.90;99.90;;;;;;5063016;28;20078;-75
2022/07/16 06:57:48;;;;;;;7.47;1.88;;;16.00;99.90;;;;;;5045943;28;20377;-75
2022/07/16 07:00:14;;;;;;;6.38;1.30;;;16.00;99.90;;;;;;5044391;28;20390;-75
2022/07/16 07:02:41;;;;;;;6.40;1.70;;;16.00;99.90;;;;;;5049207;28;20068;-75
2022/07/16 07:05:07;;;;;;;6.32;1.33;;;16.00;99.90;;;;;;5047439;28;20543;-75
2022/07/16 07:07:37;;;;;;;7.43;1.58;;;16.00;99.90;;;;;;5050900;28;20115;-76
2022/07/16 07:10:03;;;;;;;7.50;1.60;;;16.00;99.90;;;;;;5043535;28;20084;-75
2022/07/16 07:12:35;;;;;;;5.05;1.45;;;16.00;99.90;;;;;;5042862;28;20036;-75
2022/07/16 07:15:01;;;;;;;6.03;1.45;;;16.10;99.90;;;;;;5044539;28;20040;-74
2022/07/16 07:17:27;;;;;;;5.80;1.42;;;16.20;99.90;;;;;;5068558;28;20473;-77
2022/07/16 07:19:53;;;;;;;4.65;1.35;;;16.30;99.90;;;;;;5048774;28;20068;-74
2022/07/16 07:22:18;;;;;;;6.88;1.67;;;16.40;99.90;;;;;;5045905;28;20375;-74
2022/07/16 07:24:44;;;;;;;4.82;1.35;;;16.50;99.90;;;;;;5067025;28;20032;-75
2022/07/16 07:27:09;;;;;;;5.13;1.40;;;16.60;99.90;;;;;;5043635;28;20047;-75
2022/07/16 07:29:35;;;;;;;8.15;1.50;;;16.70;99.90;;;;;;5036530;28;20468;-74
2022/07/16 07:32:01;;;;;;;5.63;1.63;;;16.70;99.90;;;;;;5039682;28;20036;-75
2022/07/16 07:34:27;;;;;;;4.30;1.23;;;16.70;99.90;;;;;;5050125;28;20515;-75
2022/07/16 07:36:52;;;;;;;6.55;1.70;;;16.80;99.90;;;;;;5050371;28;20079;-73
2022/07/16 07:39:18;;;;;;;7.28;1.67;;;16.80;99.90;;;;;;5066156;28;20500;-74
2022/07/16 07:41:43;;;;;;;7.38;1.65;;;16.80;99.90;;;;;;5070795;28;20082;-75
2022/07/16 07:44:09;;;;;;;5.18;1.25;;;16.80;99.90;;;;;;5036552;28;20048;-73
2022/07/16 07:46:36;;;;;;;4.57;1.38;;;16.80;99.90;;;;;;5036114;28;20047;-73
2022/07/16 07:49:02;;;;;;;9.98;1.38;;;16.90;99.90;;;;;;5049423;28;20457;-74
2022/07/16 07:51:27;;;;;;;9.15;1.35;;;17.00;99.90;;;;;;5052594;28;20119;-76
2022/07/16 07:53:54;;;;;;;4.30;1.27;;;17.20;99.90;;;;;;5051721;28;20036;-73
2022/07/16 07:56:19;;;;;;;7.97;1.40;;;17.30;99.90;;;;;;5049786;28;20037;-74
2022/07/16 07:58:45;;;;;;;5.03;1.20;;;17.70;99.90;;;;;;5035682;28;20048;-74
2022/07/16 08:01:11;;;;;;;4.78;1.30;;;17.40;99.90;;;;;;5068230;28;20095;-74
2022/07/16 08:03:36;;;;;;;5.22;1.60;;;17.50;99.90;;;;;;5054532;28;20512;-75
2022/07/16 08:06:02;;;;;;;4.03;1.13;;;17.50;99.90;;;;;;5049580;28;20033;-74
2022/07/16 08:08:30;;;;;;;6.15;1.33;;;17.50;99.90;;;;;;5072477;28;20040;-75
2022/07/16 08:10:56;;;;;;;6.38;1.50;;;17.50;99.90;;;;;;5055343;28;20040;-74
2022/07/16 08:13:26;;;;;;;8.88;1.83;;;17.60;99.90;;;;;;5029035;28;20036;-74
2022/07/16 08:15:52;;;;;;;8.48;1.40;;;17.70;99.90;;;;;;5047980;28;20051;-74
2022/07/16 08:18:17;;;;;;;3.78;1.20;;;17.70;99.90;;;;;;5052285;28;20044;-75
2022/07/16 08:20:43;;;;;;;6.13;1.73;;;17.80;99.90;;;;;;5054489;28;20032;-75
2022/07/16 08:23:08;;;;;;;6.25;1.30;;;17.80;99.90;;;;;;5055327;28;20137;-75
2022/07/16 08:25:46;;;;;;;5.22;1.13;;;17.80;99.90;;;;;;5053226;28;20036;-75
2022/07/16 08:28:14;;;;;;;7.68;1.20;;;17.80;99.90;;;;;;5067035;28;20090;-75
2022/07/16 08:30:40;;;;;;;4.43;1.05;;;17.80;99.90;;;;;;5041302;28;20401;-75
2022/07/16 08:33:06;;;;;;;6.88;1.52;;;17.80;99.90;;;;;;5052870;28;20041;-75
2022/07/16 08:35:31;;;;;;;5.30;1.20;;;17.90;99.90;;;;;;5040272;28;20048;-75
2022/07/16 08:37:57;;;;;;;5.53;1.45;;;17.80;99.90;;;;;;5037865;28;20043;-75
2022/07/16 08:40:24;;;;;;;6.63;1.15;;;17.70;99.90;;;;;;5054158;28;20068;-75
2022/07/16 08:42:52;;;;;;;3.85;1.13;;;17.80;99.90;;;;;;5031565;28;20115;-75
2022/07/16 08:45:22;;;;;;;2.83;1.15;;;17.80;99.90;;;;;;5029355;28;20156;-75
2022/07/16 08:47:52;;;;;;;4.13;1.05;;;17.80;99.90;;;;;;5049778;28;20586;-75
2022/07/16 08:50:18;;;;;;;3.45;1.00;;;17.80;99.90;;;;;;5034833;28;20048;-75
2022/07/16 08:52:48;;;;;;;5.20;1.10;;;18.00;99.90;;;;;;5050193;28;20028;-75
2022/07/16 08:55:14;;;;;;;4.78;1.60;;;18.40;99.90;;;;;;5068337;28;20040;-75
2022/07/16 08:57:41;;;;;;;1.92;0.93;;;18.70;99.90;;;;;;5023739;28;20093;-75
2022/07/16 09:00:11;;;;;;;2.25;0.95;;;19.00;99.90;;;;;;5035192;28;20037;-75
2022/07/16 09:02:37;;;;;;;4.57;1.25;;;19.30;99.90;;;;;;5053815;28;20439;-75
2022/07/16 09:05:03;;;;;;;3.50;1.00;;;19.40;99.10;;;;;;5052535;28;20503;-75
2022/07/16 09:07:29;;;;;;;3.15;1.17;;;19.40;98.40;;;;;;5050542;28;20053;-75
2022/07/16 09:09:55;;;;;;;3.85;0.98;;;19.30;97.80;;;;;;5064832;28;20155;-75
2022/07/16 09:12:44;;;;;;;5.60;1.25;;;19.30;98.10;;;;;;5062666;28;20037;-75
2022/07/16 09:15:26;;;;;;;4.00;1.33;;;19.20;96.80;;;;;;5063984;28;20485;-75
2022/07/16 09:18:26;;;;;;;2.42;0.80;;;19.20;96.90;;;;;;5053904;28;20385;-75
2022/07/16 09:20:54;;;;;;;2.70;1.08;;;19.20;96.70;;;;;;5052063;28;20462;-75
2022/07/16 09:23:35;;;;;;;5.05;1.20;;;19.60;96.80;;;;;;5034196;28;20028;-75
2022/07/16 09:26:08;;;;;;;3.70;1.00;;;19.90;92.90;;;;;;5027664;28;20041;-75
2022/07/16 09:28:45;;;;;;;3.05;1.00;;;20.20;94.00;;;;;;5053507;28;20063;-75
2022/07/16 09:31:29;;;;;;;2.28;1.00;;;20.60;93.70;;;;;;5069540;28;20041;-75
2022/07/16 09:34:11;;;;;;;3.78;1.00;;;21.10;93.90;;;;;;5039375;28;20500;-76
2022/07/16 09:36:38;;;;;;;4.50;1.05;;;21.60;91.00;;;;;;5052299;28;20047;-76
2022/07/16 09:39:07;;;;;;;3.83;0.98;;;21.70;91.20;;;;;;5043907;28;20047;-76
2022/07/16 09:41:45;;;;;;;3.72;1.17;;;21.90;90.20;;;;;;5026071;28;20040;-76
2022/07/16 09:44:23;;;;;;;4.28;1.40;;;21.70;84.20;;;;;;5064685;28;20040;-75
2022/07/16 09:47:04;;;;;;;4.85;1.10;;;21.70;83.50;;;;;;5034505;28;20345;-76
2022/07/16 09:49:36;;;;;;;2.38;1.27;;;21.90;82.50;;;;;;5046772;28;20041;-76
2022/07/16 09:52:05;;;;;;;;;;;22.20;84.40;;;;;;5053645;28;20079;-76
2022/07/16 09:54:36;;;;;;;2.58;1.10;;;22.50;79.00;;;;;;5034922;28;19916;-75
2022/07/16 09:57:15;;;;;;;3.85;1.05;;;22.40;83.10;;;;;;5052231;28;20048;-76
2022/07/16 09:59:42;;;;;;;4.03;1.13;;;22.20;80.00;;;;;;5058816;28;20511;-75
2022/07/16 10:02:08;;;;;;;3.35;1.33;;;22.00;82.70;;;;;;5044059;28;20040;-75
2022/07/16 10:04:34;;;;;;;3.17;1.15;;;22.10;82.80;;;;;;5044055;28;20146;-75
2022/07/16 10:07:00;;;;;;;4.28;1.05;;;22.00;82.90;;;;;;5042916;28;20079;-75
2022/07/16 10:09:27;;;;;;;3.90;1.20;;;22.10;83.80;;;;;;5045285;28;20056;-75
2022/07/16 10:11:54;;;;;;;4.43;1.20;;;22.30;83.50;;;;;;5047093;28;20036;-75
2022/07/16 10:14:21;;;;;;;4.85;1.40;;;22.70;83.50;;;;;;5044157;28;20041;-75
2022/07/16 10:16:47;;;;;;;4.03;1.13;;;22.90;82.60;;;;;;5063638;28;20514;-75
2022/07/16 10:19:14;;;;;;;2.65;1.13;;;23.10;80.40;;;;;;5052747;28;20040;-76
2022/07/16 10:21:40;;;;;;;4.35;1.27;;;23.10;78.80;;;;;;5054198;28;20528;-76
2022/07/16 10:24:18;;;;;;;4.88;1.13;;;22.80;77.80;;;;;;5039942;28;20072;-75
2022/07/16 10:26:43;;;;;;;1.85;1.13;;;22.50;77.90;;;;;;5041480;28;20072;-75
2022/07/16 10:29:09;;;;;;;4.47;1.23;;;22.40;79.20;;;;;;5033131;28;20072;-75
2022/07/16 10:34:39;;;;;;;4.53;1.20;;;22.70;78.00;;;;;;5047347;28;20556;-75
2022/07/16 10:37:23;;;;;;;3.17;1.20;;;22.90;75.50;;;;;;5027182;28;20167;-77
2022/07/16 10:40:06;;;;;;;5.53;1.33;;;22.80;72.30;;;;;;5052783;28;20492;-76
2022/07/16 10:42:32;;;;;;;5.50;1.13;;;22.50;73.30;;;;;;5025824;28;20044;-76
2022/07/16 10:44:59;;;;;;;2.67;1.20;;;22.40;76.20;;;;;;5048950;28;20126;-76
2022/07/16 10:47:46;;;;;;;4.55;1.10;;;22.30;76.60;;;;;;5020862;28;20043;-75
2022/07/16 10:50:18;;;;;;;5.15;1.20;;;22.30;75.70;;;;;;5041193;28;20412;-76
2022/07/16 10:52:46;;;;;;;7.13;1.40;;;22.30;77.80;;;;;;5039420;28;20075;-75
2022/07/16 10:55:30;;;;;;;4.60;1.23;;;22.50;78.30;;;;;;5067861;28;20036;-76
2022/07/16 10:57:56;;;;;;;5.60;1.20;;;22.90;77.10;;;;;;5049479;28;20091;-76
2022/07/16 11:00:22;;;;;;;4.78;1.40;;;23.20;77.00;;;;;;5065773;28;20047;-76
2022/07/16 11:02:47;;;;;;;9.80;1.63;;;23.50;76.20;;;;;;5051414;28;20037;-76
2022/07/16 11:05:13;;;;;;;3.38;1.27;;;23.80;75.70;;;;;;5052738;28;20466;-75
2022/07/16 11:07:39;;;;;;;3.30;1.30;;;24.00;73.50;;;;;;5065699;28;20040;-76
2022/07/16 11:10:05;;;;;;;3.60;1.17;;;24.20;72.30;;;;;;5026175;28;20445;-76
2022/07/16 11:12:32;;;;;;;4.30;1.40;;;24.40;71.60;;;;;;5033823;28;20119;-77
2022/07/16 11:15:01;;;;;;;5.82;1.58;;;24.50;70.70;;;;;;5049321;28;20485;-76
2022/07/16 11:17:29;;;;;;;3.75;1.40;;;24.40;68.80;;;;;;5053120;28;20044;-77
2022/07/16 11:19:57;;;;;;;1.58;0.85;;;24.40;67.90;;;;;;5070784;28;20413;-76
2022/07/16 11:22:28;;;;;;;4.55;1.05;;;24.60;67.70;;;;;;5050077;28;20134;-76
2022/07/16 11:24:58;;;;;;;4.55;1.35;;;24.70;67.00;;;;;;5050894;28;20551;-76
2022/07/16 11:27:31;;;;;;;4.80;1.10;;;24.70;65.60;;;;;;5052591;28;20032;-76
2022/07/16 11:30:04;;;;;;;4.28;1.27;;;24.60;63.90;;;;;;5054433;28;20057;-76
2022/07/16 11:32:31;;;;;;;3.10;1.20;;;24.60;63.10;;;;;;5041356;28;20463;-76
2022/07/16 11:35:04;;;;;;;6.32;1.45;;;24.70;64.60;;;;;;5052746;28;20078;-77
2022/07/16 11:37:57;;;;;;;4.20;1.20;;;24.70;63.00;;;;;;5056749;28;20040;-76
2022/07/16 11:40:37;;;;;;;4.50;1.20;;;24.70;62.50;;;;;;5037102;28;20063;-76
2022/07/16 11:43:03;;;;;;;5.72;1.20;;;24.70;62.30;;;;;;5049941;28;20076;-76
2022/07/16 11:45:35;;;;;;;6.25;1.48;;;24.80;63.40;;;;;;5053169;28;20056;-76
2022/07/16 11:48:09;;;;;;;;;;;24.90;63.40;;;;;;5052549;28;20049;-76
2022/07/16 11:50:35;;;;;;;4.68;1.23;;;25.10;63.20;;;;;;5055003;28;19920;-76
2022/07/16 11:53:01;;;;;;;4.45;1.40;;;25.20;64.60;;;;;;5035094;28;20036;-77
2022/07/16 11:55:27;;;;;;;3.47;1.30;;;25.30;63.90;;;;;;5034211;28;20483;-76
2022/07/16 11:57:52;;;;;;;5.50;1.30;;;25.40;62.60;;;;;;5051098;28;20483;-76
2022/07/16 12:00:18;;;;;;;4.22;1.40;;;25.60;62.10;;;;;;5033732;28;20048;-76
2022/07/16 12:02:45;;;;;;;4.38;1.20;;;25.70;60.30;;;;;;5045773;28;20500;-76
2022/07/16 12:05:12;;;;;;;5.20;1.30;;;25.60;59.20;;;;;;5028349;28;20040;-75
2022/07/16 12:07:38;;;;;;;4.47;1.38;;;25.80;59.50;;;;;;5053942;28;20390;-76
2022/07/16 12:10:06;;;;;;;4.47;1.20;;;25.90;59.50;;;;;;5047808;28;20032;-77
2022/07/16 12:12:34;;;;;;;6.25;1.60;;;25.80;59.10;;;;;;5048973;28;20056;-76
2022/07/16 12:15:03;;;;;;;6.68;1.55;;;25.40;58.30;;;;;;5043135;28;20063;-76
2022/07/16 12:17:37;;;;;;;7.65;1.30;;;25.10;58.40;;;;;;5053929;28;20052;-76
2022/07/16 12:20:28;;;;;;;4.15;1.30;;;24.80;59.40;;;;;;5046110;28;20443;-76
2022/07/16 12:23:00;;;;;;;7.32;1.40;;;24.80;60.20;;;;;;5050817;28;20104;-76
2022/07/16 12:25:26;;;;;;;7.57;1.60;;;24.80;61.20;;;;;;5051157;28;20033;-76
2022/07/16 12:28:00;;;;;;;5.30;1.48;;;24.50;61.20;;;;;;5074439;28;20119;-76
2022/07/16 12:30:53;;;;;;;4.13;1.30;;;24.30;62.00;;;;;;5039180;28;20037;-76
2022/07/16 12:33:19;;;;;;;5.00;1.50;;;24.10;61.70;;;;;;5064131;28;20513;-75
2022/07/16 12:35:47;;;;;;;6.60;1.70;;;23.90;62.60;;;;;;5061987;28;20040;-76
2022/07/16 12:38:46;;;;;;;4.38;1.67;;;23.80;62.80;;;;;;5071602;28;20488;-76
2022/07/16 12:41:14;;;;;;;4.55;1.60;;;23.90;63.30;;;;;;5051482;28;20044;-78
2022/07/16 12:43:42;;;;;;;6.53;1.65;;;23.80;63.50;;;;;;5043997;28;20400;-76
2022/07/16 12:46:10;;;;;;;5.18;1.50;;;23.70;63.80;;;;;;5029823;28;20090;-75
2022/07/16 12:48:53;;;;;;;6.57;1.50;;;23.80;64.30;;;;;;5029553;28;20033;-76
2022/07/16 12:51:21;;;;;;;4.30;1.50;;;24.00;64.00;;;;;;5047823;28;20060;-76
2022/07/16 12:53:48;;;;;;;5.97;2.63;;;24.10;63.60;;;;;;5037077;28;20527;-76
2022/07/16 12:59:00;;;;;;;15.02;11.18;;;23.90;62.40;;;;;;5049416;28;20095;-76
2022/07/16 13:01:27;;;;;;;7.28;4.20;;;23.60;62.20;;;;;;5033490;28;20065;-76